INDIA METEOROLOGICAL DEPARTMENT, R.M.C. NEW DELHI
Dated:06-03-2021
METARS


Agartala   
VEAT 061000Z 22004KT 4000 HZ FEW020 SCT100 32/22 Q1009 NOSIG=
Ahmedabad  
VAAH 061030Z 29010KT 6000 NSC 39/11 Q1009 NOSIG=
Allahabad  
VEAB 061000Z 32009KT 8000 SKC 31/11 Q1010 NOSIG=
Aurangabad 
VAAU 060900Z 18003KT 6000 NSC 36/05 Q1014 NOSIG=
Bangalore  
VOBL 061030Z VRB05KT CAVOK 33/M02 Q1015 NOSIG=
Baroda     
VABO 061000Z 33004KT 6000 NSC 38/11 Q1010 NOSIG=
Bhaunagar  
VABV 060900Z 13011KT 6000 NSC 35/10 Q1011 NOSIG=
Bhopal     
VABP 061030Z 28009KT 6000 NSC 34/02 Q1013 NOSIG=
Bhubaneswar
VEBS 061030Z 26013KT 5000 HZ NSC 37/09 Q1008 NOSIG=
Bhuntar    
VIBR 060900Z 16010KT 5000 HZ SCT040 BKN080 25/01 Q1013=
Chennai    
VOMM 061030Z 15007KT 7000 NSC 31/22 Q1010 NOSIG=
Coimbatore 
VOCB 061000Z 12006KT 7000 NSC 35/13 Q1011 NOSIG=
Colombo    
VCBI 061010Z VRB04KT 9999 SCT018 FEW020CB 31/25 Q1009 NOSIG RMK E/SE/S=
Delhi      
VIDP 061030Z 29008KT 5000 HZ NSC 30/08 Q1010 NOSIG=
Gauhati    
VEGT 061003Z 02003KT 5000 HZ FEW018 FEW025CB SCT100 24/14 Q1009 NOSIG=
Gaya       
VEGY 061030Z 32006KT 6000 NSC 31/02 Q1010 NOSIG=
Gaggal     
VIGG 061000Z 25002KT 6000 SCT035 BKN080 24/11 Q1015=
Goa        
VOGO 061000Z 30010KT 5000 HZ FEW090 31/23 Q1010 NOSIG=
Fursatganj 
VERB 061000Z 27010KT 5000 HZ NSC 30/11 Q1009 =
Hyderabad  
VOHS 061000Z 35003KT 6000 NSC 35/09 Q1014 NOSIG=
Imphal     
VEIM 061030Z 26007KT 4000 HZ SCT018 BKN100 24/13 Q1012 NOSIG=
Indore     
VAID 060900Z 30004KT 8000 NSC 33/M04 Q1014 NOSIG=
Jabalpur   
VAJB 061000Z 02008KT 6000 NSC 32/07 Q1013=
Jaipur     
VIJP 061030Z 32005G15KT 5000 HZ NSC 35/M02 Q1010 NOSIG=
Khajuraho  
VEKO 060900Z 27005KT 6000 NSC 35/03 Q1011=
Kochi      
VOCI 061000Z 28010KT 6000 FEW020 33/22 Q1009 NOSIG=
Kolkata    
VECC 061030Z 28003KT 3800 HZ NSC 35/11 Q1007 NOSIG=
Kozhikode  
VOCL 061000Z 28004KT 6000 FEW015 32/22 Q1009 NOSIG=
Lucknow    
VILK 061000Z 29010KT 5000 HZ NSC 31/10 Q1009 NOSIG=
Madurai    
VOMD 061030Z 07006KT 7000 NSC 33/17 Q1010 NOSIG=
Mohanbari  
VEMN 061000Z 11006KT 3000 BR FEW008 SCT018 FEW025CB BKN090 20/16 Q1012 TEMPO 1500 -TSRA=
Mumbai     
VABB 061000Z 27011KT 3500 FU NSC 31/21 Q1011 NOSIG=
Nagpur     
VANP 061030Z 31007KT 5000 HZ NSC 36/M01 Q1011 NOSIG=
Pantnagar
VIPT 060900Z 32004KT 5000 HZ NSC 28/13 Q1010=
Patna      
VEPT 061030Z 27006KT 5000 HZ NSC 29/07 Q1008 NOSIG=
Raipur     
VERP 060900Z 28010KT 6000  NSC 35/M02 Q1012 NOSIG=
Safdarjung 
VIDD 061000Z 28007KT 4500 HZ NSC 31/16 Q1010 NOSIG=
Shimla     
VISM 061000Z 32009KT 6000 FEW030 SCT080 20/M06 Q1017 =
Surat     
VASU 061030Z 23006KT 6000 NSC 35/20 Q1010 NOSIG=
Ranchi     
VERC 061000Z 27006KT 6000 NSC 32/06 Q1013 NOSIG=
Trichy     
VOTR 061000Z 06008KT 8000 NSC 35/19 Q1010 NOSIG=
Trivandrum 
VOTV 061030Z 23006KT 6000 FEW015 32/23 Q1010 NOSIG=
Udaipur    
VAUD 061030Z 26006KT 6000 NSC 35/06 Q1012 NOSIG=
Varanasi   
VEBN 061000Z 28011KT 5000 HZ NSC 31/12 Q1009 NOSIG=
Vizag      
VOVZ 060930Z 20010KT 4500 HZ NSC 34/15 Q1009 NOSIG=
Male       
VRMM 061000Z 07009KT 9999 FEW018 32/25 Q1010 NOSIG=
Gan        
VRMG 061000Z 05006KT 9999 SCT018TCU 32/25 Q1010 NOSIG=
Kathmandu  
VNKT 061020Z 22006KT 8000 FEW020 SCT030 20/07 Q1014 NOSIG=
Dhaka      
VGHS 061000Z 16010KT 3500 HZ NSC 32/21 Q1008 NOSIG=
Colombo    
VCBI 061010Z VRB04KT 9999 SCT018 FEW020CB 31/25 Q1009 NOSIG RMK E/SE/S=
Karachi    
OPKC 061000Z 22010KT 7000 NSC 31/18 Q1011 NOSIG=
Lahore     
OPLA 060955Z 07007KT 6000 NSC 31/08 Q1010 BECMG 7000 RMK QFE982 RMK A29.83=
Gorakhpur  
VEGK 061000Z 30010KT 6000 SKC 29/08 Q1008 NOSIG=
Agra       
VIAG 061000Z 23007KT 6000 SKC 33/04 Q1009 NOSIG=
Bagdogra   
VEBD 061000Z 08004KT 6000 SCT030 BKN080 27/16 Q1009 NOSIG=
Gwalior    
VIGR 061000Z 29010KT 6000 SKC 33/04 Q1010 NOSIG=
Pune       
VAPO 061000Z VRB02KT 6000 SKC 36/01 Q1014 NOSIG=
Jamnagar   
VAJM 061000Z 27011KT 6000 SKC 32/12 Q1011 NOSIG=
Pathankot   
VIPK 061000Z 34005KT 6000 BKN100 BKN200 25/14 Q1011 NOSIG=